Ana Sayfa
METAR-TAF:

METAR-TAF

Havaalanları :

Belgrad Nikola Tesla Havalimanı

Belgrad, Sırbistan

Enlem: 44-49N, Boylam: 020-17E, yükseklik: 96 m

Güncel hava durumu gözlemi

Rapor saat 17:00 UTC de 15 dakika önce yapıldı.
Rüzgar güneydan 5 kt
Sıcaklık 27°C
Nem 51%
Basınç 1016 hPa
Görüş mesafesi 10 km veya daha fazla
3300 ft yükseklikte az bulutlu, Yükselen kümülüs.
4000 ft yükseklikte parçalı bulutlu

METAR: LYBE 191700Z 17005KT 9999 FEW033TCU SCT040 27/16 Q1016 NOSIG

Saat: 19:15 (17:15 UTC)

Tahmin

Rapor saat 11:00 UTC de 6 saat ve 15 dakika önce yapıldı.
Ayın 19'si saat 12 UTC'den ayın 20'si saat 12 UTC'ye kadar geçerli Tahmin
Rüzgar kuzey/kuzeydoğudan 7 kt
Görüş mesafesi 10 km veya daha fazla
1500 m altında bulut yok ve kümülonimbus yok
Geçici
ayın 20'si saat 03 UTC'den ayın 20'si saat 05 UTC'ye kadar
Görüş mesafesi: 4000 m
Pus

TAF: LYBE 191100Z 1912/2012 03007KT CAVOK TX33/1913Z TN17/2003Z TEMPO 2003/2005 4000 BR

4.000'den fazla havaalanı için hava durumu gözlemleri ve tahminleri (METAR ve TAF raporları).

Kullanılabilir istasyonlar harita üzerinde sarı ve kırmızı noktalarla gösterilir.

İstasyonun adını görmek için fareyi noktanın üzerinde gezdirin.

Sonrasında hava gözlem ve tahminlerini görmek için tıklayın.

Haritayı değiştirmek için: yaklaştırmak için siyah artı işaretli yeşil düğmeye ve uzaklaştırmak için de eksi işaretli düğmeye hızla tıklayın; bitişik haritalar için yeşil okları kullanın.


METAR-TAF: